Time;durP1;ratioP1;P1;durP2;ratioP2;P2;SDS_P1;SDS_P2;PMS_P1;PMS_P2;Temp;Humidity;BMP_temperature;BMP_pressure;BME280_temperature;BME280_humidity;BME280_pressure;Samples;Min_cycle;Max_cycle;Signal;HPM_P1;HPM_P2
2022/01/22 00:00:31;;;;;;;15.45;2.42;;;6.60;99.90;;;;;;5054814;28;20051;-77
2022/01/22 00:02:57;;;;;;;16.52;3.10;;;6.70;99.90;;;;;;5057069;28;20035;-77
2022/01/22 00:05:23;;;;;;;13.35;1.95;;;6.60;99.90;;;;;;5068516;28;20047;-77
2022/01/22 00:07:50;;;;;;;17.13;2.72;;;6.60;99.90;;;;;;5075583;28;20072;-77
2022/01/22 00:10:19;;;;;;;21.15;3.58;;;6.50;99.90;;;;;;5053040;28;20036;-78
2022/01/22 00:15:21;;;;;;;12.73;1.98;;;6.70;99.90;;;;;;5070657;28;20036;-77
2022/01/22 00:17:48;;;;;;;18.70;3.08;;;6.50;99.90;;;;;;5061009;28;20052;-77
2022/01/22 00:20:15;;;;;;;16.27;2.45;;;6.70;99.90;;;;;;5055380;28;20088;-74
2022/01/22 00:22:43;;;;;;;16.55;2.50;;;6.60;99.90;;;;;;5071096;28;20040;-75
2022/01/22 00:25:09;;;;;;;11.43;2.25;;;6.50;99.90;;;;;;5069955;28;20044;-77
2022/01/22 00:27:40;;;;;;;15.60;2.33;;;6.60;99.90;;;;;;5070105;28;20048;-78
2022/01/22 00:30:20;;;;;;;22.70;2.55;;;6.60;99.90;;;;;;5072567;28;20082;-77
2022/01/22 00:32:46;;;;;;;15.75;2.25;;;6.60;99.90;;;;;;5052565;28;20144;-77
2022/01/22 00:35:13;;;;;;;20.70;2.55;;;6.60;99.90;;;;;;5062390;28;20052;-77
2022/01/22 00:37:41;;;;;;;16.10;2.55;;;6.60;99.90;;;;;;5069753;28;20037;-77
2022/01/22 00:40:09;;;;;;;16.80;2.17;;;6.70;99.90;;;;;;5076659;28;20045;-77
2022/01/22 00:42:35;;;;;;;12.20;2.17;;;6.50;99.90;;;;;;5052658;28;20118;-76
2022/01/22 00:45:02;;;;;;;12.13;1.88;;;6.70;99.90;;;;;;5068264;28;20044;-77
2022/01/22 00:47:28;;;;;;;;;;;6.70;99.90;;;;;;5053744;28;20040;-77
2022/01/22 00:49:53;;;;;;;9.48;1.55;;;6.70;99.90;;;;;;5068591;28;20277;-76
2022/01/22 00:52:19;;;;;;;15.27;1.77;;;6.70;99.90;;;;;;5068663;28;20079;-76
2022/01/22 00:54:45;;;;;;;7.63;1.27;;;6.70;99.90;;;;;;5068319;28;20063;-76
2022/01/22 00:57:11;;;;;;;8.55;1.52;;;6.60;99.90;;;;;;5068950;28;20283;-76
2022/01/22 00:59:36;;;;;;;9.02;2.30;;;6.60;99.90;;;;;;5065476;28;20072;-76
2022/01/22 01:02:03;;;;;;;10.63;1.75;;;6.60;99.90;;;;;;5098267;28;20087;-76
2022/01/22 01:04:32;;;;;;;9.15;1.80;;;6.60;99.90;;;;;;5061907;28;20458;-76
2022/01/22 01:06:58;;;;;;;11.02;2.05;;;6.70;99.90;;;;;;5074109;28;20488;-76
2022/01/22 01:09:24;;;;;;;9.85;1.85;;;6.70;99.90;;;;;;5049659;28;20076;-76
2022/01/22 01:11:55;;;;;;;11.55;1.80;;;6.60;99.90;;;;;;5057048;28;20083;-76
2022/01/22 01:14:37;;;;;;;13.13;2.25;;;6.70;99.90;;;;;;5058648;28;20071;-76
2022/01/22 01:33:20;;;;;;;10.43;1.63;;;6.70;99.90;;;;;;5040741;28;20050;-76
2022/01/22 01:35:46;;;;;;;8.68;1.85;;;6.60;99.90;;;;;;5072107;28;20048;-76
2022/01/22 01:38:11;;;;;;;5.90;1.10;;;6.70;99.90;;;;;;5071676;28;20040;-76
2022/01/22 01:40:41;;;;;;;6.28;1.25;;;6.60;99.90;;;;;;5072385;28;20054;-76
2022/01/22 01:45:34;;;;;;;5.18;0.88;;;6.70;99.90;;;;;;5072240;28;20123;-76
2022/01/22 01:48:03;;;;;;;;;;;6.60;99.90;;;;;;5070794;28;20044;-76
2022/01/22 01:50:34;;;;;;;5.03;0.90;;;6.60;99.90;;;;;;5051989;28;19966;-76
2022/01/22 01:53:30;;;;;;;4.43;1.10;;;6.70;99.90;;;;;;5061465;28;20044;-77
2022/01/22 01:58:23;;;;;;;7.68;1.55;;;6.50;99.90;;;;;;5065587;28;20487;-77
2022/01/22 02:00:50;;;;;;;7.82;1.30;;;6.50;99.90;;;;;;5062773;28;20121;-77
2022/01/22 02:03:16;;;;;;;4.00;1.00;;;6.50;99.90;;;;;;5095756;28;20039;-77
2022/01/22 02:05:42;;;;;;;6.00;1.30;;;6.60;99.90;;;;;;5035071;28;20179;-77
2022/01/22 02:08:09;;;;;;;6.05;1.30;;;6.50;99.90;;;;;;5093824;28;20073;-75
2022/01/22 02:10:40;;;;;;;4.70;1.17;;;6.60;99.90;;;;;;5064047;28;20087;-76
2022/01/22 02:24:04;;;;;;;6.85;1.20;;;6.60;99.90;;;;;;5077494;28;20037;-76
2022/01/22 02:26:30;;;;;;;9.02;1.40;;;6.40;99.90;;;;;;5054805;28;20032;-76
2022/01/22 02:28:56;;;;;;;5.13;1.25;;;6.60;99.90;;;;;;5052402;28;20185;-76
2022/01/22 02:34:15;;;;;;;8.75;1.50;;;6.40;99.90;;;;;;5070155;28;20041;-76
2022/01/22 02:36:54;;;;;;;4.57;1.10;;;6.40;99.90;;;;;;5057051;28;20047;-77
2022/01/22 02:39:25;;;;;;;7.05;1.30;;;6.40;99.90;;;;;;5057002;28;20079;-76
2022/01/22 02:41:52;;;;;;;4.95;1.30;;;6.40;99.90;;;;;;5070292;28;20161;-76
2022/01/22 02:44:44;;;;;;;9.45;1.40;;;6.40;99.90;;;;;;5054103;28;20529;-76
2022/01/22 02:47:11;;;;;;;6.85;1.50;;;6.50;99.90;;;;;;5067471;28;20049;-77
2022/01/22 02:49:37;;;;;;;;;;;6.50;99.90;;;;;;5054354;28;20052;-77
2022/01/22 02:52:09;;;;;;;8.27;1.40;;;6.50;99.90;;;;;;5071902;28;19920;-76
2022/01/22 02:54:36;;;;;;;10.98;1.52;;;6.60;99.90;;;;;;5059547;28;20127;-77
2022/01/22 02:57:02;;;;;;;7.25;1.30;;;6.50;99.90;;;;;;5035587;28;20542;-77
2022/01/22 02:59:28;;;;;;;6.35;1.38;;;6.40;99.90;;;;;;5078073;28;20037;-76
2022/01/22 03:01:54;;;;;;;7.05;1.35;;;6.50;99.90;;;;;;5055541;28;20605;-77
2022/01/22 03:04:19;;;;;;;6.30;1.02;;;6.40;99.90;;;;;;5064245;28;20037;-76
2022/01/22 03:06:47;;;;;;;5.35;1.02;;;6.50;99.90;;;;;;5052673;28;20044;-77
2022/01/22 03:09:15;;;;;;;5.38;1.10;;;6.60;99.90;;;;;;5074118;28;20048;-77
2022/01/22 03:12:12;;;;;;;7.55;1.17;;;6.40;99.90;;;;;;5053056;28;20105;-77
2022/01/22 03:20:17;;;;;;;4.13;0.73;;;6.40;99.90;;;;;;5053963;28;20138;-77
2022/01/22 03:22:43;;;;;;;3.85;0.70;;;6.50;99.90;;;;;;5069441;28;20082;-78
2022/01/22 03:27:53;;;;;;;5.93;1.23;;;6.40;99.90;;;;;;5062611;28;20075;-78
2022/01/22 03:30:19;;;;;;;4.18;0.88;;;6.50;99.90;;;;;;5054747;28;20123;-76
2022/01/22 03:32:49;;;;;;;4.43;1.00;;;6.50;99.90;;;;;;5067976;28;20048;-77
2022/01/22 03:37:45;;;;;;;5.88;0.95;;;6.40;99.90;;;;;;5053736;28;20121;-75
2022/01/22 03:40:13;;;;;;;4.28;0.90;;;6.40;99.90;;;;;;5053090;28;20045;-78
2022/01/22 03:42:40;;;;;;;6.60;0.82;;;6.50;99.90;;;;;;5044484;28;20080;-78
2022/01/22 03:45:09;;;;;;;3.50;0.68;;;6.40;99.90;;;;;;5095982;28;20040;-77
2022/01/22 03:47:36;;;;;;;6.93;1.05;;;6.40;99.90;;;;;;5091917;28;20094;-78
2022/01/22 03:50:02;;;;;;;;;;;6.40;99.90;;;;;;5053989;28;20451;-78
2022/01/22 03:52:28;;;;;;;5.63;1.48;;;6.50;99.90;;;;;;5040954;28;19925;-77
2022/01/22 03:54:53;;;;;;;4.47;1.35;;;6.30;99.90;;;;;;5057192;28;20047;-78
2022/01/22 03:57:22;;;;;;;7.73;1.77;;;6.40;99.90;;;;;;5060954;28;20049;-77
2022/01/22 03:59:49;;;;;;;2.90;0.90;;;6.30;99.90;;;;;;5090272;28;20388;-78
2022/01/22 04:04:43;;;;;;;6.93;1.38;;;6.50;99.90;;;;;;5071193;28;20139;-78
2022/01/22 04:09:44;;;;;;;9.30;1.60;;;6.50;99.90;;;;;;5069791;28;20036;-78
2022/01/22 04:12:16;;;;;;;4.63;1.00;;;6.50;99.90;;;;;;5076357;28;20040;-78
2022/01/22 04:14:55;;;;;;;7.75;1.55;;;6.40;99.90;;;;;;5090817;28;20052;-78
2022/01/22 04:24:50;;;;;;;7.65;1.25;;;6.30;99.90;;;;;;5065318;28;20068;-77
2022/01/22 04:25:40;;;;;;;4.53;1.08;;;6.30;99.90;;;;;;5053419;28;20071;-77
2022/01/22 04:28:06;;;;;;;5.88;1.25;;;6.40;99.90;;;;;;5053751;28;20037;-78
2022/01/22 04:30:32;;;;;;;7.38;1.13;;;6.30;99.90;;;;;;5068369;28;20159;-78
2022/01/22 04:33:00;;;;;;;5.70;1.20;;;6.40;99.90;;;;;;5070677;28;20037;-77
2022/01/22 04:35:26;;;;;;;2.30;0.60;;;6.30;99.90;;;;;;5068665;28;20052;-78
2022/01/22 04:37:52;;;;;;;4.80;0.77;;;6.30;99.90;;;;;;5069565;28;20040;-78
2022/01/22 04:40:17;;;;;;;6.43;0.65;;;6.30;99.90;;;;;;5068998;28;20044;-78
2022/01/22 04:42:43;;;;;;;3.83;0.50;;;6.20;99.90;;;;;;5051641;28;20322;-78
2022/01/22 04:55:39;;;;;;;3.83;1.13;;;6.30;99.90;;;;;;5073282;28;20131;-78
2022/01/22 04:58:06;;;;;;;5.88;1.10;;;6.40;99.90;;;;;;5080246;28;20048;-78
2022/01/22 05:00:34;;;;;;;4.78;0.82;;;6.40;99.90;;;;;;5079150;28;20048;-77
2022/01/22 05:03:01;;;;;;;5.30;1.00;;;6.20;99.90;;;;;;5078430;28;20040;-78
2022/01/22 05:05:27;;;;;;;5.32;1.23;;;6.30;99.90;;;;;;5056358;28;20048;-78
2022/01/22 05:07:53;;;;;;;5.35;1.00;;;6.40;99.90;;;;;;5059885;28;20073;-78
2022/01/22 05:10:20;;;;;;;4.95;1.20;;;6.40;99.90;;;;;;5057042;28;20054;-78
2022/01/22 05:12:46;;;;;;;4.13;1.20;;;6.40;99.90;;;;;;5072276;28;20123;-78
2022/01/22 05:15:12;;;;;;;5.47;1.42;;;6.20;99.90;;;;;;5072717;28;20526;-78
2022/01/22 05:17:41;;;;;;;4.93;0.90;;;6.40;99.90;;;;;;5070429;28;20049;-77
2022/01/22 05:20:16;;;;;;;9.90;1.40;;;6.40;99.90;;;;;;5069170;28;20072;-77
2022/01/22 05:25:41;;;;;;;7.68;1.15;;;6.30;99.90;;;;;;5061331;28;20041;-77
2022/01/22 05:31:04;;;;;;;8.50;1.33;;;6.30;99.90;;;;;;5072348;28;20411;-77
2022/01/22 05:38:43;;;;;;;7.50;1.30;;;6.30;99.90;;;;;;5057520;28;20412;-77
2022/01/22 05:41:10;;;;;;;;;;;6.20;99.90;;;;;;5061690;28;20095;-77
2022/01/22 05:43:35;;;;;;;12.25;1.33;;;6.20;99.90;;;;;;5044389;28;19924;-75
2022/01/22 05:46:01;;;;;;;8.48;1.27;;;6.30;99.90;;;;;;5050453;28;20052;-76
2022/01/22 05:48:27;;;;;;;8.02;1.50;;;6.10;99.90;;;;;;5056681;28;20029;-76
2022/01/22 05:50:58;;;;;;;4.88;0.88;;;6.10;99.90;;;;;;5053193;28;20136;-76
2022/01/22 06:01:19;;;;;;;5.03;1.05;;;6.20;99.90;;;;;;5064127;28;20194;-76
2022/01/22 06:03:46;;;;;;;4.88;1.00;;;6.20;99.90;;;;;;5064013;28;20536;-76
2022/01/22 06:06:13;;;;;;;6.63;1.15;;;6.30;99.90;;;;;;5081820;28;20033;-76
2022/01/22 06:08:45;;;;;;;8.27;1.23;;;6.30;99.90;;;;;;5039564;28;20045;-74
2022/01/22 06:11:12;;;;;;;9.30;2.05;;;6.40;99.90;;;;;;5064520;28;20409;-74
2022/01/22 06:13:45;;;;;;;6.82;1.58;;;6.30;99.90;;;;;;5066689;28;20049;-74
2022/01/22 06:16:12;;;;;;;6.43;1.63;;;6.30;99.90;;;;;;5069106;28;20050;-75
2022/01/22 06:18:38;;;;;;;9.25;1.33;;;6.20;99.90;;;;;;5054941;28;20175;-75
2022/01/22 06:21:05;;;;;;;15.68;1.65;;;6.30;99.90;;;;;;5059416;28;20464;-75
2022/01/22 06:23:30;;;;;;;;;;;6.40;99.90;;;;;;5059761;28;20051;-74
2022/01/22 06:26:00;;;;;;;6.00;1.17;;;6.40;99.90;;;;;;5056228;28;19916;-75
2022/01/22 06:28:30;;;;;;;7.95;1.40;;;6.40;99.90;;;;;;5087173;28;20049;-74
2022/01/22 06:30:56;;;;;;;5.18;1.40;;;6.20;99.90;;;;;;5071723;28;20044;-76
2022/01/22 06:33:22;;;;;;;4.45;1.20;;;6.40;99.90;;;;;;5060657;28;20466;-75
2022/01/22 06:35:48;;;;;;;6.03;1.27;;;6.40;99.90;;;;;;5062960;28;20040;-74
2022/01/22 06:38:14;;;;;;;7.85;1.75;;;6.30;99.90;;;;;;5056431;28;20107;-74
2022/01/22 06:43:06;;;;;;;3.65;0.98;;;6.20;99.90;;;;;;5061344;28;20488;-74
2022/01/22 06:45:32;;;;;;;6.40;1.30;;;6.10;99.90;;;;;;5059579;28;20044;-75
2022/01/22 06:47:58;;;;;;;4.78;1.17;;;6.10;99.90;;;;;;5061365;28;20071;-75
2022/01/22 06:50:24;;;;;;;6.18;1.30;;;6.10;99.90;;;;;;5060271;28;20049;-74
2022/01/22 06:52:55;;;;;;;3.95;1.33;;;6.10;99.90;;;;;;5090690;28;20099;-74
2022/01/22 06:55:37;;;;;;;4.55;1.30;;;6.20;99.90;;;;;;5063769;28;20110;-75
2022/01/22 06:58:03;;;;;;;7.25;1.30;;;6.30;99.90;;;;;;5070193;28;20448;-75
2022/01/22 07:00:28;;;;;;;4.72;1.35;;;6.20;99.90;;;;;;5066573;28;20123;-75
2022/01/22 07:02:54;;;;;;;6.13;1.63;;;6.20;99.90;;;;;;5069067;28;20039;-74
2022/01/22 07:05:20;;;;;;;4.45;1.52;;;6.30;99.90;;;;;;5033530;28;20288;-75
2022/01/22 07:07:45;;;;;;;4.15;1.20;;;6.10;99.90;;;;;;5051546;28;20032;-74
2022/01/22 07:10:11;;;;;;;3.60;1.27;;;6.30;99.90;;;;;;5068057;28;20102;-75
2022/01/22 07:12:37;;;;;;;3.92;1.10;;;6.10;99.90;;;;;;5063031;28;20127;-74
2022/01/22 07:15:03;;;;;;;5.07;1.40;;;6.20;99.90;;;;;;5073902;28;20484;-74
2022/01/22 07:17:34;;;;;;;5.15;1.30;;;6.20;99.90;;;;;;5061739;28;20496;-74
2022/01/22 07:20:03;;;;;;;4.90;1.23;;;6.20;99.90;;;;;;5041744;28;20192;-74
2022/01/22 07:22:35;;;;;;;6.82;1.65;;;6.00;99.90;;;;;;5040800;28;20053;-74
2022/01/22 07:25:01;;;;;;;6.22;1.83;;;6.10;99.90;;;;;;5058534;28;20484;-74
2022/01/22 07:27:26;;;;;;;4.82;1.60;;;6.10;99.90;;;;;;5060469;28;20037;-75
2022/01/22 07:29:52;;;;;;;4.53;1.55;;;6.10;99.90;;;;;;5066955;28;20044;-74
2022/01/22 07:32:25;;;;;;;7.93;1.90;;;6.10;99.90;;;;;;5068591;28;20050;-74
2022/01/22 07:34:51;;;;;;;2.85;1.00;;;6.10;99.90;;;;;;5053682;28;20515;-75
2022/01/22 07:37:17;;;;;;;4.57;1.60;;;6.00;99.90;;;;;;5053430;28;20132;-74
2022/01/22 07:39:42;;;;;;;3.83;1.45;;;6.10;99.90;;;;;;5069675;28;20087;-74
2022/01/22 07:42:08;;;;;;;5.93;1.27;;;6.10;99.90;;;;;;5070359;28;20033;-74
2022/01/22 07:44:34;;;;;;;3.40;1.10;;;6.10;99.90;;;;;;5062760;28;20135;-75
2022/01/22 07:46:59;;;;;;;4.05;1.05;;;6.00;99.90;;;;;;5068843;28;20537;-74
2022/01/22 07:49:25;;;;;;;2.85;0.98;;;5.90;99.90;;;;;;5051499;28;20476;-75
2022/01/22 07:51:51;;;;;;;4.57;1.30;;;6.00;99.90;;;;;;5048062;28;20064;-74
2022/01/22 07:54:17;;;;;;;2.97;1.00;;;6.00;99.90;;;;;;5067180;28;20056;-75
2022/01/22 07:56:43;;;;;;;2.08;0.80;;;6.00;99.90;;;;;;5062081;28;20093;-74
2022/01/22 07:59:08;;;;;;;4.80;1.10;;;6.00;99.90;;;;;;5065716;28;20546;-74
2022/01/22 08:01:34;;;;;;;3.55;1.00;;;5.90;99.90;;;;;;5050703;28;20040;-75
2022/01/22 08:04:01;;;;;;;3.97;1.30;;;6.00;99.90;;;;;;5045089;28;20108;-74
2022/01/22 08:06:26;;;;;;;2.45;0.95;;;5.90;99.90;;;;;;5053621;28;20333;-75
2022/01/22 08:08:52;;;;;;;6.45;1.20;;;5.90;99.90;;;;;;5063584;28;20048;-75
2022/01/22 08:11:18;;;;;;;6.20;1.00;;;6.00;99.90;;;;;;5041413;28;20115;-74
2022/01/22 08:13:43;;;;;;;5.53;0.98;;;6.00;99.90;;;;;;5050280;28;20796;-75
2022/01/22 08:16:09;;;;;;;4.43;1.33;;;5.80;99.90;;;;;;5068974;28;20508;-74
2022/01/22 08:18:34;;;;;;;3.33;0.90;;;5.80;99.90;;;;;;5068105;28;20476;-75
2022/01/22 08:21:00;;;;;;;3.03;0.75;;;5.90;99.90;;;;;;5067522;28;20290;-75
2022/01/22 08:23:26;;;;;;;2.85;0.60;;;6.00;99.90;;;;;;5052652;28;20071;-75
2022/01/22 08:25:52;;;;;;;4.78;0.90;;;5.80;99.90;;;;;;5054186;28;20039;-74
2022/01/22 08:31:15;;;;;;;2.53;0.90;;;6.00;99.90;;;;;;5052525;28;20051;-74
2022/01/22 08:36:24;;;;;;;4.53;1.10;;;6.00;99.90;;;;;;5062412;28;20136;-74
2022/01/22 08:38:50;;;;;;;7.10;1.20;;;5.90;99.90;;;;;;5083674;28;20513;-75
2022/01/22 08:41:16;;;;;;;2.42;0.82;;;6.10;99.90;;;;;;5067058;28;21950;-74
2022/01/22 08:43:41;;;;;;;7.85;1.15;;;6.10;99.90;;;;;;5070536;28;20135;-74
2022/01/22 08:46:07;;;;;;;3.47;1.10;;;6.10;99.90;;;;;;5066563;28;20048;-74
2022/01/22 08:48:33;;;;;;;4.13;0.90;;;6.10;99.90;;;;;;5057852;28;20513;-74
2022/01/22 08:50:59;;;;;;;4.13;0.80;;;6.10;99.90;;;;;;5094483;28;20568;-75
2022/01/22 08:53:25;;;;;;;2.50;0.50;;;6.00;99.90;;;;;;5037931;28;20033;-74
2022/01/22 08:55:51;;;;;;;6.18;0.82;;;6.10;99.90;;;;;;5072660;28;20032;-74
2022/01/22 08:58:17;;;;;;;4.43;0.80;;;6.10;99.90;;;;;;5067275;28;20041;-74
2022/01/22 09:00:45;;;;;;;3.22;0.73;;;6.00;99.90;;;;;;5072395;28;20045;-74
2022/01/22 09:03:13;;;;;;;3.28;0.75;;;6.10;99.90;;;;;;5066494;28;20066;-74
2022/01/22 09:05:38;;;;;;;4.60;0.93;;;6.00;99.90;;;;;;5054813;28;20051;-74
2022/01/22 09:08:05;;;;;;;4.53;1.05;;;6.10;99.90;;;;;;5069243;28;20396;-74
2022/01/22 09:10:31;;;;;;;3.25;1.15;;;6.10;99.90;;;;;;5071540;28;20131;-75
2022/01/22 09:12:57;;;;;;;4.30;0.95;;;6.10;99.90;;;;;;5068388;28;20551;-74
2022/01/22 09:15:23;;;;;;;5.03;0.93;;;6.10;99.90;;;;;;5065676;28;20044;-74
2022/01/22 09:17:49;;;;;;;5.45;1.20;;;6.00;99.90;;;;;;5070247;28;20037;-74
2022/01/22 09:20:31;;;;;;;5.30;0.80;;;6.20;99.90;;;;;;5069336;28;20047;-75
2022/01/22 09:22:57;;;;;;;4.47;1.00;;;6.10;99.90;;;;;;5071048;28;20346;-73
2022/01/22 09:25:23;;;;;;;;;;;6.00;99.90;;;;;;5099293;27;20036;-74
2022/01/22 09:27:48;;;;;;;2.42;0.70;;;6.10;99.90;;;;;;5054730;28;19928;-73
2022/01/22 09:30:14;;;;;;;4.57;0.80;;;6.10;99.90;;;;;;5042774;28;20492;-73
2022/01/22 09:32:40;;;;;;;5.95;1.10;;;6.20;99.90;;;;;;5061633;28;20037;-73
2022/01/22 09:35:06;;;;;;;4.13;1.00;;;6.20;99.90;;;;;;5058510;28;20129;-75
2022/01/22 09:37:31;;;;;;;4.63;0.95;;;6.10;99.90;;;;;;5051773;28;20052;-75
2022/01/22 09:39:57;;;;;;;4.43;1.10;;;6.20;99.90;;;;;;5053228;28;20033;-76
2022/01/22 09:42:23;;;;;;;5.45;1.67;;;6.10;99.90;;;;;;5065289;28;20121;-74
2022/01/22 09:44:49;;;;;;;4.28;1.58;;;6.30;99.90;;;;;;5042013;28;20045;-74
2022/01/22 09:47:19;;;;;;;6.22;1.40;;;6.20;99.90;;;;;;5067943;28;20068;-75
2022/01/22 09:49:45;;;;;;;7.85;1.15;;;6.30;99.90;;;;;;5096440;28;20037;-74
2022/01/22 09:52:12;;;;;;;5.55;1.10;;;6.30;99.90;;;;;;5071122;28;20445;-74
2022/01/22 09:54:38;;;;;;;7.03;1.30;;;6.40;99.90;;;;;;5053492;28;20087;-74
2022/01/22 09:57:05;;;;;;;10.32;1.73;;;6.30;99.90;;;;;;5054517;28;20051;-74
2022/01/22 09:59:31;;;;;;;5.88;1.38;;;6.20;99.90;;;;;;5053813;28;20444;-74
2022/01/22 10:02:21;;;;;;;7.28;1.50;;;6.30;99.90;;;;;;5070436;28;20049;-74
2022/01/22 10:04:49;;;;;;;4.57;1.23;;;6.30;99.90;;;;;;5070463;28;20047;-74
2022/01/22 10:07:17;;;;;;;5.90;1.42;;;6.40;99.90;;;;;;5072205;28;20484;-74
2022/01/22 10:10:05;;;;;;;4.50;0.95;;;6.30;99.90;;;;;;5072938;28;20044;-75
2022/01/22 10:12:44;;;;;;;4.93;1.00;;;6.30;99.90;;;;;;5071638;28;20041;-75
2022/01/22 10:15:20;;;;;;;4.47;1.00;;;6.40;99.90;;;;;;5050757;28;20046;-74
2022/01/22 10:17:55;;;;;;;4.55;0.98;;;6.50;99.90;;;;;;5071917;28;20084;-75
2022/01/22 10:20:23;;;;;;;2.88;1.00;;;6.30;99.90;;;;;;5072419;28;20068;-75
2022/01/22 10:22:59;;;;;;;4.97;1.00;;;6.40;99.90;;;;;;5055478;28;20109;-75
2022/01/22 10:25:36;;;;;;;4.95;1.27;;;6.50;99.90;;;;;;5054732;28;20823;-75
2022/01/22 10:28:06;;;;;;;4.50;1.05;;;6.40;99.90;;;;;;5065284;28;20036;-75
2022/01/22 10:30:44;;;;;;;5.68;1.58;;;6.40;99.90;;;;;;5097469;28;20052;-75
2022/01/22 10:33:33;;;;;;;3.60;0.90;;;6.30;99.90;;;;;;5066185;28;20044;-74
2022/01/22 10:36:14;;;;;;;4.22;1.30;;;6.40;99.90;;;;;;5065286;28;20036;-75
2022/01/22 10:38:44;;;;;;;5.60;1.20;;;6.30;99.90;;;;;;5052905;28;20499;-75
2022/01/22 10:41:12;;;;;;;3.65;0.88;;;6.30;99.90;;;;;;5071057;28;20041;-75
2022/01/22 10:43:42;;;;;;;2.78;1.00;;;6.50;99.90;;;;;;5071636;28;20510;-75
2022/01/22 10:46:20;;;;;;;5.38;1.20;;;6.40;99.90;;;;;;5063136;28;20044;-75
2022/01/22 10:49:10;;;;;;;5.07;1.05;;;6.50;99.90;;;;;;5069346;28;20033;-75
2022/01/22 10:51:56;;;;;;;3.38;0.88;;;6.30;99.90;;;;;;5069913;28;20048;-75
2022/01/22 10:54:24;;;;;;;5.95;1.40;;;6.40;99.90;;;;;;5066399;28;20080;-74
2022/01/22 10:56:51;;;;;;;2.60;0.80;;;6.50;99.90;;;;;;5070560;28;20033;-74
2022/01/22 10:59:19;;;;;;;3.75;1.13;;;6.60;99.90;;;;;;5072861;28;20044;-75
2022/01/22 11:01:48;;;;;;;3.63;1.08;;;6.60;99.90;;;;;;5054668;28;20065;-75
2022/01/22 11:04:25;;;;;;;3.83;1.10;;;6.40;99.90;;;;;;5072605;28;20041;-75
2022/01/22 11:07:00;;;;;;;2.38;1.15;;;6.60;99.90;;;;;;5071070;28;20040;-75
2022/01/22 11:09:29;;;;;;;5.70;1.35;;;6.40;99.90;;;;;;5071889;28;20044;-76
2022/01/22 11:11:56;;;;;;;3.83;1.40;;;6.50;99.90;;;;;;5070330;28;20111;-74
2022/01/22 11:14:22;;;;;;;4.93;1.45;;;6.50;99.90;;;;;;5070844;28;20114;-77
2022/01/22 11:16:48;;;;;;;;;;;6.40;99.90;;;;;;5038525;28;20051;-74
2022/01/22 11:19:23;;;;;;;4.05;1.20;;;6.40;99.90;;;;;;5042830;28;19928;-75
2022/01/22 11:21:52;;;;;;;6.35;1.40;;;6.60;99.90;;;;;;5066388;28;20033;-75
2022/01/22 11:24:22;;;;;;;5.15;1.67;;;6.60;99.90;;;;;;5054897;28;20040;-75
2022/01/22 11:26:58;;;;;;;6.65;1.83;;;6.60;99.90;;;;;;5070383;28;20040;-75
2022/01/22 11:29:29;;;;;;;5.72;1.80;;;6.50;99.90;;;;;;5066745;28;20032;-74
2022/01/22 11:31:56;;;;;;;5.10;1.35;;;6.60;99.90;;;;;;5071011;28;20177;-75
2022/01/22 11:34:27;;;;;;;5.05;1.58;;;6.60;99.90;;;;;;5070973;28;20143;-75
2022/01/22 11:37:12;;;;;;;4.68;1.45;;;6.60;99.90;;;;;;5053459;28;20037;-74
2022/01/22 11:39:39;;;;;;;5.90;1.30;;;6.60;99.90;;;;;;5047659;28;20044;-74
2022/01/22 11:42:05;;;;;;;8.73;1.63;;;6.60;99.90;;;;;;5070148;28;20040;-74
2022/01/22 11:44:33;;;;;;;9.25;1.70;;;6.50;99.90;;;;;;5067999;28;20128;-74
2022/01/22 11:47:14;;;;;;;5.70;1.58;;;6.60;99.90;;;;;;5069957;28;20078;-74
2022/01/22 11:50:00;;;;;;;6.60;1.58;;;6.50;99.90;;;;;;5066099;28;20436;-75
2022/01/22 11:52:29;;;;;;;4.30;1.30;;;6.60;99.90;;;;;;5069148;28;20057;-74
2022/01/22 11:54:59;;;;;;;3.42;1.30;;;6.60;99.90;;;;;;5049170;28;20369;-74
2022/01/22 11:57:31;;;;;;;7.82;2.13;;;6.70;99.90;;;;;;5071259;28;20040;-75
2022/01/22 12:00:23;;;;;;;5.25;2.13;;;6.50;99.90;;;;;;5069795;28;20115;-74
2022/01/22 12:03:16;;;;;;;11.18;2.38;;;6.70;99.90;;;;;;5090745;28;20041;-74
2022/01/22 12:05:54;;;;;;;7.57;2.22;;;6.70;99.90;;;;;;5050844;28;20145;-75
2022/01/22 12:08:21;;;;;;;9.00;2.53;;;6.50;99.90;;;;;;5069530;28;20036;-74
2022/01/22 12:16:37;;;;;;;9.75;3.05;;;6.60;99.90;;;;;;5069439;28;20514;-75
2022/01/22 12:19:04;;;;;;;6.78;2.33;;;6.60;99.90;;;;;;5061943;28;20072;-74
2022/01/22 12:21:36;;;;;;;10.45;2.88;;;6.60;99.90;;;;;;5054486;28;20044;-74
2022/01/22 12:24:08;;;;;;;9.25;2.50;;;6.70;99.90;;;;;;5070488;28;20375;-74
2022/01/22 12:26:39;;;;;;;8.65;2.75;;;6.60;99.90;;;;;;5071000;28;20037;-74
2022/01/22 12:29:32;;;;;;;9.43;2.63;;;6.50;99.90;;;;;;5066522;28;20040;-74
2022/01/22 12:32:05;;;;;;;9.45;2.22;;;6.70;99.90;;;;;;5067169;28;20122;-74
2022/01/22 12:34:51;;;;;;;9.27;2.42;;;6.70;99.90;;;;;;5070312;28;20028;-74
2022/01/22 12:37:21;;;;;;;9.98;2.40;;;6.70;99.90;;;;;;5065071;28;20067;-74
2022/01/22 12:39:54;;;;;;;8.98;2.28;;;6.60;99.90;;;;;;5070232;28;20064;-75
2022/01/22 12:42:35;;;;;;;9.98;3.13;;;6.70;99.90;;;;;;5069902;28;20173;-75
2022/01/22 12:45:07;;;;;;;11.68;2.50;;;6.70;99.90;;;;;;5048213;28;20033;-74
2022/01/22 12:47:35;;;;;;;8.63;2.35;;;6.60;99.90;;;;;;5069949;28;20041;-74
2022/01/22 12:50:07;;;;;;;11.95;2.95;;;6.60;99.90;;;;;;5069835;28;20120;-75
2022/01/22 12:52:34;;;;;;;8.63;2.40;;;6.70;99.90;;;;;;5068847;28;20463;-74
2022/01/22 12:55:13;;;;;;;6.85;2.15;;;6.60;99.90;;;;;;5068948;28;20114;-75
2022/01/22 12:57:42;;;;;;;11.52;2.58;;;6.60;99.90;;;;;;5060946;28;20053;-74
2022/01/22 13:00:15;;;;;;;9.88;2.28;;;6.70;99.90;;;;;;5061769;28;20079;-74
2022/01/22 13:03:07;;;;;;;8.82;1.90;;;6.60;99.90;;;;;;5048437;28;20044;-83
2022/01/22 13:05:33;;;;;;;7.18;1.80;;;6.70;99.90;;;;;;5045732;28;20055;-77
2022/01/22 13:08:01;;;;;;;7.22;1.90;;;6.60;99.90;;;;;;5050689;28;20040;-77
2022/01/22 13:10:36;;;;;;;7.30;2.08;;;6.60;99.90;;;;;;5053874;28;20044;-73
2022/01/22 13:13:06;;;;;;;8.00;2.10;;;6.60;99.90;;;;;;5070658;28;20565;-75
2022/01/22 13:15:33;;;;;;;14.68;2.55;;;6.60;99.90;;;;;;5079993;28;20519;-72
2022/01/22 13:18:01;;;;;;;9.43;2.10;;;6.60;99.90;;;;;;5061912;28;20040;-73
2022/01/22 13:20:29;;;;;;;9.07;2.15;;;6.50;99.90;;;;;;5069585;28;20033;-74
2022/01/22 13:22:56;;;;;;;9.00;1.70;;;6.60;99.90;;;;;;5066425;28;20364;-74
2022/01/22 13:25:22;;;;;;;11.43;2.33;;;6.60;99.90;;;;;;5068639;28;20037;-74
2022/01/22 13:28:02;;;;;;;;;;;6.70;99.90;;;;;;5069370;28;20040;-74
2022/01/22 13:30:39;;;;;;;7.25;1.80;;;6.60;99.90;;;;;;5068589;28;19916;-74
2022/01/22 13:33:19;;;;;;;6.45;1.67;;;6.60;99.90;;;;;;5064394;28;20553;-74
2022/01/22 13:36:14;;;;;;;7.80;1.40;;;6.60;99.90;;;;;;5063345;28;20044;-74
2022/01/22 13:49:29;;;;;;;8.15;1.50;;;6.40;99.90;;;;;;5065577;28;20094;-73
2022/01/22 13:52:06;;;;;;;11.85;2.08;;;6.50;99.90;;;;;;5064616;28;20053;-74
2022/01/22 13:54:36;;;;;;;8.77;1.70;;;6.50;99.90;;;;;;5050946;28;20570;-73
2022/01/22 13:57:05;;;;;;;5.97;1.55;;;6.40;99.90;;;;;;5057547;28;20426;-73
2022/01/22 13:59:43;;;;;;;9.82;1.60;;;6.40;99.90;;;;;;5058647;28;20067;-73
2022/01/22 14:04:50;;;;;;;5.57;1.40;;;6.40;99.90;;;;;;5086846;28;20060;-73
2022/01/22 14:07:39;;;;;;;9.88;1.80;;;6.40;99.90;;;;;;5070622;28;20048;-74
2022/01/22 14:10:20;;;;;;;4.10;1.27;;;6.50;99.90;;;;;;5069658;28;20052;-73
2022/01/22 14:12:50;;;;;;;7.25;1.40;;;6.50;99.90;;;;;;5053513;28;20049;-74
2022/01/22 14:15:35;;;;;;;6.75;1.48;;;6.40;99.90;;;;;;5065960;28;20466;-74
2022/01/22 14:20:41;;;;;;;;;;;6.50;99.90;;;;;;5069956;28;20048;-74
2022/01/22 14:23:17;;;;;;;8.02;1.27;;;6.50;99.90;;;;;;5065466;28;20113;-74
2022/01/22 14:25:55;;;;;;;6.32;1.30;;;6.50;99.90;;;;;;5052409;28;20041;-74
2022/01/22 14:28:41;;;;;;;6.63;1.60;;;6.50;99.90;;;;;;5063311;28;20033;-74
2022/01/22 14:31:53;;;;;;;4.97;1.10;;;6.50;99.90;;;;;;5095309;28;20077;-74
2022/01/22 14:34:35;;;;;;;5.38;1.35;;;6.50;99.90;;;;;;5052617;28;20053;-73
2022/01/22 14:37:04;;;;;;;7.35;1.10;;;6.50;99.90;;;;;;5064418;28;20052;-73
2022/01/22 14:45:33;;;;;;;6.97;1.58;;;6.50;99.90;;;;;;5066564;28;20123;-74
2022/01/22 14:48:02;;;;;;;5.68;1.10;;;6.50;99.90;;;;;;5066979;28;20075;-73
2022/01/22 14:50:29;;;;;;;4.63;1.10;;;6.50;99.90;;;;;;5081272;28;20480;-74
2022/01/22 14:53:00;;;;;;;4.18;1.10;;;6.50;99.90;;;;;;5070319;28;20068;-74
2022/01/22 14:55:27;;;;;;;4.63;1.00;;;6.50;99.90;;;;;;5066002;28;20075;-74
2022/01/22 14:57:54;;;;;;;5.95;1.02;;;6.50;99.90;;;;;;5060816;28;20166;-73
2022/01/22 15:00:20;;;;;;;3.53;0.85;;;6.50;99.90;;;;;;5068587;28;20086;-73
2022/01/22 15:02:47;;;;;;;3.95;1.42;;;6.40;99.90;;;;;;5062921;28;20033;-73
2022/01/22 15:05:14;;;;;;;4.30;1.00;;;6.50;99.90;;;;;;5066389;28;20556;-73
2022/01/22 15:07:41;;;;;;;5.13;1.10;;;6.60;99.90;;;;;;5046285;28;20626;-72
2022/01/22 15:10:08;;;;;;;6.38;1.40;;;6.50;99.90;;;;;;5047124;28;20045;-73
2022/01/22 15:12:35;;;;;;;9.10;1.90;;;6.50;99.90;;;;;;5066899;28;20396;-73
2022/01/22 15:15:01;;;;;;;4.43;1.30;;;6.50;99.90;;;;;;5046037;28;20339;-74